sensor_id;sensor_type;location;lat;lon;timestamp;pressure;altitude;pressure_sealevel;temperature;humidity
30967;BME280;17649;51.836;8.330;2023-02-12T00:00:31;103135.47;;;9.68;100.00
30967;BME280;17649;51.836;8.330;2023-02-12T00:03:31;103140.63;;;9.68;100.00
30967;BME280;17649;51.836;8.330;2023-02-12T00:06:33;103139.75;;;9.71;100.00
30967;BME280;17649;51.836;8.330;2023-02-12T00:09:35;103143.28;;;9.61;100.00
30967;BME280;17649;51.836;8.330;2023-02-12T00:12:35;103136.34;;;9.64;100.00
30967;BME280;17649;51.836;8.330;2023-02-12T00:15:39;103133.75;;;9.66;100.00
30967;BME280;17649;51.836;8.330;2023-02-12T00:18:39;103123.41;;;9.66;100.00
30967;BME280;17649;51.836;8.330;2023-02-12T00:21:40;103123.44;;;9.64;100.00
30967;BME280;17649;51.836;8.330;2023-02-12T00:24:40;103127.81;;;9.59;100.00
30967;BME280;17649;51.836;8.330;2023-02-12T00:27:43;103130.31;;;9.64;100.00
30967;BME280;17649;51.836;8.330;2023-02-12T00:30:43;103134.63;;;9.68;100.00
30967;BME280;17649;51.836;8.330;2023-02-12T00:33:44;103135.47;;;9.67;100.00
30967;BME280;17649;51.836;8.330;2023-02-12T00:36:44;103136.38;;;9.63;100.00
30967;BME280;17649;51.836;8.330;2023-02-12T00:39:44;103144.09;;;9.64;100.00
30967;BME280;17649;51.836;8.330;2023-02-12T00:42:44;103144.09;;;9.64;100.00
30967;BME280;17649;51.836;8.330;2023-02-12T00:45:45;103142.34;;;9.66;100.00
30967;BME280;17649;51.836;8.330;2023-02-12T00:48:45;103142.41;;;9.62;100.00
30967;BME280;17649;51.836;8.330;2023-02-12T00:51:46;103140.66;;;9.65;100.00
30967;BME280;17649;51.836;8.330;2023-02-12T00:54:46;103145.09;;;9.55;100.00
30967;BME280;17649;51.836;8.330;2023-02-12T00:57:46;103144.22;;;9.55;100.00
30967;BME280;17649;51.836;8.330;2023-02-12T01:00:46;103140.94;;;9.41;100.00
30967;BME280;17649;51.836;8.330;2023-02-12T01:03:47;103151.56;;;9.10;100.00
30967;BME280;17649;51.836;8.330;2023-02-12T01:06:47;103145.59;;;9.01;100.00
30967;BME280;17649;51.836;8.330;2023-02-12T01:09:47;103148.91;;;9.15;100.00
30967;BME280;17649;51.836;8.330;2023-02-12T01:12:48;103140.09;;;9.39;100.00
30967;BME280;17649;51.836;8.330;2023-02-12T01:15:48;103134.03;;;9.41;100.00
30967;BME280;17649;51.836;8.330;2023-02-12T01:18:49;103153.00;;;9.39;100.00
30967;BME280;17649;51.836;8.330;2023-02-12T01:21:50;103151.22;;;9.44;100.00
30967;BME280;17649;51.836;8.330;2023-02-12T01:24:50;103151.22;;;9.44;100.00
30967;BME280;17649;51.836;8.330;2023-02-12T01:27:52;103152.06;;;9.46;100.00
30967;BME280;17649;51.836;8.330;2023-02-12T01:30:53;103151.16;;;9.48;100.00
30967;BME280;17649;51.836;8.330;2023-02-12T01:33:54;103158.94;;;9.48;100.00
30967;BME280;17649;51.836;8.330;2023-02-12T01:36:55;103156.38;;;9.45;100.00
30967;BME280;17649;51.836;8.330;2023-02-12T01:39:55;103158.06;;;9.48;100.00
30967;BME280;17649;51.836;8.330;2023-02-12T01:42:58;103161.47;;;9.51;100.00
30967;BME280;17649;51.836;8.330;2023-02-12T01:45:59;103158.88;;;9.51;100.00
30967;BME280;17649;51.836;8.330;2023-02-12T01:48:59;103153.75;;;9.48;100.00
30967;BME280;17649;51.836;8.330;2023-02-12T01:52:01;103152.91;;;9.46;100.00
30967;BME280;17649;51.836;8.330;2023-02-12T01:55:03;103162.41;;;9.44;100.00
30967;BME280;17649;51.836;8.330;2023-02-12T01:58:04;103154.75;;;9.35;100.00
30967;BME280;17649;51.836;8.330;2023-02-12T02:01:05;103159.03;;;9.41;100.00
30967;BME280;17649;51.836;8.330;2023-02-12T02:04:07;103157.34;;;9.35;100.00
30967;BME280;17649;51.836;8.330;2023-02-12T02:07:08;103154.81;;;9.31;100.00
30967;BME280;17649;51.836;8.330;2023-02-12T02:10:09;103147.88;;;9.34;100.00
30967;BME280;17649;51.836;8.330;2023-02-12T02:13:10;103156.47;;;9.38;100.00
30967;BME280;17649;51.836;8.330;2023-02-12T02:16:29;103150.44;;;9.39;100.00
30967;BME280;17649;51.836;8.330;2023-02-12T02:23:39;103140.94;;;9.41;100.00
30967;BME280;17649;51.836;8.330;2023-02-12T02:32:11;103146.06;;;9.44;100.00
30967;BME280;17649;51.836;8.330;2023-02-12T02:35:38;103137.50;;;9.36;100.00
30967;BME280;17649;51.836;8.330;2023-02-12T02:41:44;103133.22;;;9.35;100.00
30967;BME280;17649;51.836;8.330;2023-02-12T02:44:47;103131.47;;;9.40;100.00
30967;BME280;17649;51.836;8.330;2023-02-12T02:47:54;103127.16;;;9.39;100.00
30967;BME280;17649;51.836;8.330;2023-02-12T02:50:56;103128.94;;;9.34;100.00
30967;BME280;17649;51.836;8.330;2023-02-12T02:57:29;103128.91;;;9.35;100.00
30967;BME280;17649;51.836;8.330;2023-02-12T03:00:30;103134.06;;;9.35;100.00
30967;BME280;17649;51.836;8.330;2023-02-12T03:03:33;103132.44;;;9.28;100.00
30967;BME280;17649;51.836;8.330;2023-02-12T03:06:40;103143.56;;;9.33;100.00
30967;BME280;17649;51.836;8.330;2023-02-12T03:09:44;103134.06;;;9.40;100.00
30967;BME280;17649;51.836;8.330;2023-02-12T03:12:51;103135.75;;;9.41;100.00
30967;BME280;17649;51.836;8.330;2023-02-12T03:15:58;103132.31;;;9.42;100.00
30967;BME280;17649;51.836;8.330;2023-02-12T03:19:07;103127.97;;;9.44;100.00
30967;BME280;17649;51.836;8.330;2023-02-12T03:22:13;103125.47;;;9.38;100.00
30967;BME280;17649;51.836;8.330;2023-02-12T03:25:17;103118.56;;;9.35;100.00
30967;BME280;17649;51.836;8.330;2023-02-12T03:28:21;103119.41;;;9.40;100.00
30967;BME280;17649;51.836;8.330;2023-02-12T03:31:34;103118.53;;;9.41;100.00
30967;BME280;17649;51.836;8.330;2023-02-12T03:40:55;103115.97;;;9.37;100.00
30967;BME280;17649;51.836;8.330;2023-02-12T03:44:05;103122.84;;;9.39;100.00
30967;BME280;17649;51.836;8.330;2023-02-12T03:47:18;103121.16;;;9.38;100.00
30967;BME280;17649;51.836;8.330;2023-02-12T03:53:40;103128.03;;;9.36;100.00
30967;BME280;17649;51.836;8.330;2023-02-12T03:56:49;103131.50;;;9.35;100.00
30967;BME280;17649;51.836;8.330;2023-02-12T03:59:51;103133.19;;;9.39;100.00
30967;BME280;17649;51.836;8.330;2023-02-12T04:02:52;103137.50;;;9.39;100.00
30967;BME280;17649;51.836;8.330;2023-02-12T04:05:53;103139.22;;;9.37;100.00
30967;BME280;17649;51.836;8.330;2023-02-12T04:08:54;103144.38;;;9.40;100.00
30967;BME280;17649;51.836;8.330;2023-02-12T04:12:14;103152.13;;;9.40;100.00
30967;BME280;17649;51.836;8.330;2023-02-12T04:16:21;103148.69;;;9.41;100.00
30967;BME280;17649;51.836;8.330;2023-02-12T04:18:49;103157.31;;;9.40;100.00
30967;BME280;17649;51.836;8.330;2023-02-12T04:21:52;103154.72;;;9.37;100.00
30967;BME280;17649;51.836;8.330;2023-02-12T04:31:23;103169.38;;;9.36;100.00
30967;BME280;17649;51.836;8.330;2023-02-12T04:35:14;103177.97;;;9.37;100.00
30967;BME280;17649;51.836;8.330;2023-02-12T04:37:50;103178.84;;;9.36;100.00
30967;BME280;17649;51.836;8.330;2023-02-12T04:40:57;103174.59;;;9.33;100.00
30967;BME280;17649;51.836;8.330;2023-02-12T04:43:58;103184.06;;;9.33;100.00
30967;BME280;17649;51.836;8.330;2023-02-12T04:47:12;103184.97;;;9.29;100.00
30967;BME280;17649;51.836;8.330;2023-02-12T04:50:13;103191.00;;;9.27;100.00
30967;BME280;17649;51.836;8.330;2023-02-12T04:53:13;103191.88;;;9.28;100.00
30967;BME280;17649;51.836;8.330;2023-02-12T04:56:17;103191.91;;;9.25;100.00
30967;BME280;17649;51.836;8.330;2023-02-12T04:59:17;103191.91;;;9.23;100.00
30967;BME280;17649;51.836;8.330;2023-02-12T05:02:18;103192.78;;;9.22;100.00
30967;BME280;17649;51.836;8.330;2023-02-12T05:05:19;103197.09;;;9.19;100.00
30967;BME280;17649;51.836;8.330;2023-02-12T05:08:19;103195.44;;;9.12;100.00
30967;BME280;17649;51.836;8.330;2023-02-12T05:11:19;103196.34;;;9.06;100.00
30967;BME280;17649;51.836;8.330;2023-02-12T05:14:19;103195.44;;;9.12;100.00
30967;BME280;17649;51.836;8.330;2023-02-12T05:17:23;103187.69;;;9.13;100.00
30967;BME280;17649;51.836;8.330;2023-02-12T05:20:23;103192.03;;;9.10;100.00
30967;BME280;17649;51.836;8.330;2023-02-12T05:23:30;103191.16;;;9.06;100.00
30967;BME280;17649;51.836;8.330;2023-02-12T05:26:31;103186.06;;;9.02;100.00
30967;BME280;17649;51.836;8.330;2023-02-12T05:29:31;103188.69;;;8.95;100.00
30967;BME280;17649;51.836;8.330;2023-02-12T05:32:31;103191.31;;;8.88;100.00
30967;BME280;17649;51.836;8.330;2023-02-12T05:35:35;103184.47;;;8.84;100.00
30967;BME280;17649;51.836;8.330;2023-02-12T05:38:36;103192.25;;;8.79;100.00
30967;BME280;17649;51.836;8.330;2023-02-12T05:41:37;103196.56;;;8.79;100.00
30967;BME280;17649;51.836;8.330;2023-02-12T05:44:38;103199.13;;;8.77;100.00
30967;BME280;17649;51.836;8.330;2023-02-12T05:47:39;103199.13;;;8.77;100.00
30967;BME280;17649;51.836;8.330;2023-02-12T05:50:40;103200.00;;;8.75;100.00
30967;BME280;17649;51.836;8.330;2023-02-12T05:53:40;103196.59;;;8.70;100.00
30967;BME280;17649;51.836;8.330;2023-02-12T05:56:42;103194.91;;;8.69;100.00
30967;BME280;17649;51.836;8.330;2023-02-12T05:59:43;103200.09;;;8.65;100.00
30967;BME280;17649;51.836;8.330;2023-02-12T06:02:43;103200.97;;;8.64;100.00
30967;BME280;17649;51.836;8.330;2023-02-12T06:05:48;103202.66;;;8.62;100.00
30967;BME280;17649;51.836;8.330;2023-02-12T06:08:49;103198.38;;;8.61;100.00
30967;BME280;17649;51.836;8.330;2023-02-12T06:11:49;103198.38;;;8.61;100.00
30967;BME280;17649;51.836;8.330;2023-02-12T06:14:50;103199.22;;;8.62;100.00
30967;BME280;17649;51.836;8.330;2023-02-12T06:17:50;103205.25;;;8.62;100.00
30967;BME280;17649;51.836;8.330;2023-02-12T06:20:50;103201.81;;;8.63;100.00
30967;BME280;17649;51.836;8.330;2023-02-12T06:23:53;103207.81;;;8.62;100.00
30967;BME280;17649;51.836;8.330;2023-02-12T06:26:53;103203.53;;;8.61;100.00
30967;BME280;17649;51.836;8.330;2023-02-12T06:29:53;103206.13;;;8.64;100.00
30967;BME280;17649;51.836;8.330;2023-02-12T06:32:53;103209.56;;;8.63;100.00
30967;BME280;17649;51.836;8.330;2023-02-12T06:35:54;103208.69;;;8.64;100.00
30967;BME280;17649;51.836;8.330;2023-02-12T06:38:54;103211.28;;;8.66;100.00
30967;BME280;17649;51.836;8.330;2023-02-12T06:41:56;103214.72;;;8.65;100.00
30967;BME280;17649;51.836;8.330;2023-02-12T06:44:56;103220.72;;;8.67;100.00
30967;BME280;17649;51.836;8.330;2023-02-12T06:47:56;103210.41;;;8.62;100.00
30967;BME280;17649;51.836;8.330;2023-02-12T06:51:02;103215.59;;;8.64;100.00
30967;BME280;17649;51.836;8.330;2023-02-12T06:54:03;103227.59;;;8.70;100.00
30967;BME280;17649;51.836;8.330;2023-02-12T06:57:03;103227.59;;;8.70;100.00
30967;BME280;17649;51.836;8.330;2023-02-12T07:00:03;103229.31;;;8.68;100.00
30967;BME280;17649;51.836;8.330;2023-02-12T07:03:04;103236.16;;;8.73;100.00
30967;BME280;17649;51.836;8.330;2023-02-12T07:06:04;103233.53;;;8.78;100.00
30967;BME280;17649;51.836;8.330;2023-02-12T07:09:04;103245.59;;;8.80;100.00
30967;BME280;17649;51.836;8.330;2023-02-12T07:12:05;103240.44;;;8.82;100.00
30967;BME280;17649;51.836;8.330;2023-02-12T07:15:05;103246.41;;;8.85;100.00
30967;BME280;17649;51.836;8.330;2023-02-12T07:18:06;103246.38;;;8.91;100.00
30967;BME280;17649;51.836;8.330;2023-02-12T07:21:06;103251.53;;;8.96;100.00
30967;BME280;17649;51.836;8.330;2023-02-12T07:24:08;103253.25;;;8.97;100.00
30967;BME280;17649;51.836;8.330;2023-02-12T07:27:10;103255.78;;;9.02;100.00
30967;BME280;17649;51.836;8.330;2023-02-12T07:30:11;103262.69;;;8.98;100.00
30967;BME280;17649;51.836;8.330;2023-02-12T07:33:11;103262.66;;;9.01;100.00
30967;BME280;17649;51.836;8.330;2023-02-12T07:36:13;103263.50;;;9.03;100.00
30967;BME280;17649;51.836;8.330;2023-02-12T07:39:14;103266.94;;;9.05;100.00
30967;BME280;17649;51.836;8.330;2023-02-12T07:42:14;103273.81;;;9.06;100.00
30967;BME280;17649;51.836;8.330;2023-02-12T07:45:14;103282.41;;;9.13;100.00
30967;BME280;17649;51.836;8.330;2023-02-12T07:48:15;103277.19;;;9.19;100.00
30967;BME280;17649;51.836;8.330;2023-02-12T07:51:17;103284.91;;;9.25;100.00
30967;BME280;17649;51.836;8.330;2023-02-12T07:54:21;103284.88;;;9.30;100.00
30967;BME280;17649;51.836;8.330;2023-02-12T07:57:21;103284.75;;;9.43;100.00
30967;BME280;17649;51.836;8.330;2023-02-12T08:00:21;103283.00;;;9.45;100.00
30967;BME280;17649;51.836;8.330;2023-02-12T08:03:21;103285.59;;;9.47;100.00
30967;BME280;17649;51.836;8.330;2023-02-12T08:06:23;103282.09;;;9.49;100.00
30967;BME280;17649;51.836;8.330;2023-02-12T08:09:25;103295.75;;;9.70;100.00
30967;BME280;17649;51.836;8.330;2023-02-12T08:12:27;103298.19;;;9.83;100.00
30967;BME280;17649;51.836;8.330;2023-02-12T08:15:27;103291.25;;;9.89;100.00
30967;BME280;17649;51.836;8.330;2023-02-12T08:18:27;103296.22;;;10.08;100.00
30967;BME280;17649;51.836;8.330;2023-02-12T08:21:29;103291.78;;;10.21;100.00
30967;BME280;17649;51.836;8.330;2023-02-12T08:24:29;103294.47;;;10.09;100.00
30967;BME280;17649;51.836;8.330;2023-02-12T08:27:29;103295.22;;;10.22;100.00
30967;BME280;17649;51.836;8.330;2023-02-12T08:30:30;103296.75;;;10.42;100.00
30967;BME280;17649;51.836;8.330;2023-02-12T08:33:31;103297.69;;;10.34;100.00
30967;BME280;17649;51.836;8.330;2023-02-12T08:36:36;103298.59;;;10.31;100.00
30967;BME280;17649;51.836;8.330;2023-02-12T08:39:36;103297.75;;;10.26;100.00
30967;BME280;17649;51.836;8.330;2023-02-12T08:42:37;103303.81;;;10.27;100.00
30967;BME280;17649;51.836;8.330;2023-02-12T08:45:37;103305.53;;;10.26;100.00
30967;BME280;17649;51.836;8.330;2023-02-12T08:48:39;103309.97;;;10.10;100.00
30967;BME280;17649;51.836;8.330;2023-02-12T08:51:41;103303.09;;;10.12;100.00
30967;BME280;17649;51.836;8.330;2023-02-12T08:54:43;103310.66;;;10.32;100.00
30967;BME280;17649;51.836;8.330;2023-02-12T08:57:43;103314.06;;;10.34;100.00
30967;BME280;17649;51.836;8.330;2023-02-12T09:00:43;103302.78;;;10.43;100.00
30967;BME280;17649;51.836;8.330;2023-02-12T09:03:44;103307.09;;;10.39;100.00
30967;BME280;17649;51.836;8.330;2023-02-12T09:06:46;103304.41;;;10.50;100.00
30967;BME280;17649;51.836;8.330;2023-02-12T09:09:48;103314.59;;;10.64;100.00
30967;BME280;17649;51.836;8.330;2023-02-12T09:12:48;103311.13;;;10.65;100.00
30967;BME280;17649;51.836;8.330;2023-02-12T09:15:48;103314.19;;;10.22;100.00
30967;BME280;17649;51.836;8.330;2023-02-12T09:18:49;103315.50;;;10.60;100.00
30967;BME280;17649;51.836;8.330;2023-02-12T09:21:52;103318.78;;;10.71;100.00
30967;BME280;17649;51.836;8.330;2023-02-12T09:24:53;103325.41;;;10.93;100.00
30967;BME280;17649;51.836;8.330;2023-02-12T09:27:54;103318.44;;;10.98;100.00
30967;BME280;17649;51.836;8.330;2023-02-12T09:30:54;103319.91;;;11.15;100.00
30967;BME280;17649;51.836;8.330;2023-02-12T09:33:58;103320.00;;;11.10;100.00
30967;BME280;17649;51.836;8.330;2023-02-12T09:36:58;103323.56;;;11.03;100.00
30967;BME280;17649;51.836;8.330;2023-02-12T09:39:59;103326.75;;;11.20;100.00
30967;BME280;17649;51.836;8.330;2023-02-12T09:43:08;103318.72;;;11.37;100.00
30967;BME280;17649;51.836;8.330;2023-02-12T09:52:32;103330.22;;;11.21;100.00
30967;BME280;17649;51.836;8.330;2023-02-12T09:55:33;103334.22;;;11.40;100.00
30967;BME280;17649;51.836;8.330;2023-02-12T10:01:40;103339.19;;;11.54;100.00
30967;BME280;17649;51.836;8.330;2023-02-12T10:04:43;103336.50;;;11.61;100.00
30967;BME280;17649;51.836;8.330;2023-02-12T10:08:01;103332.75;;;11.78;100.00
30967;BME280;17649;51.836;8.330;2023-02-12T10:11:24;103328.97;;;11.99;100.00
30967;BME280;17649;51.836;8.330;2023-02-12T10:18:04;103321.72;;;12.59;100.00
30967;BME280;17649;51.836;8.330;2023-02-12T10:24:32;103338.06;;;12.21;100.00
30967;BME280;17649;51.836;8.330;2023-02-12T10:27:34;103329.44;;;12.62;100.00
30967;BME280;17649;51.836;8.330;2023-02-12T10:30:47;103333.56;;;12.72;100.00
30967;BME280;17649;51.836;8.330;2023-02-12T10:33:49;103326.69;;;12.70;100.00
30967;BME280;17649;51.836;8.330;2023-02-12T10:36:49;103327.56;;;12.70;100.00
30967;BME280;17649;51.836;8.330;2023-02-12T10:39:57;103328.63;;;12.60;100.00
30967;BME280;17649;51.836;8.330;2023-02-12T10:43:00;103322.47;;;12.66;100.00
30967;BME280;17649;51.836;8.330;2023-02-12T10:46:01;103331.75;;;12.76;100.00
30967;BME280;17649;51.836;8.330;2023-02-12T10:49:02;103318.94;;;12.68;100.00
30967;BME280;17649;51.836;8.330;2023-02-12T10:52:08;103326.09;;;12.57;100.00
30967;BME280;17649;51.836;8.330;2023-02-12T10:55:26;103320.88;;;12.14;100.00
30967;BME280;17649;51.836;8.330;2023-02-12T10:58:26;103315.84;;;12.05;100.00
30967;BME280;17649;51.836;8.330;2023-02-12T11:01:27;103319.72;;;12.30;100.00
30967;BME280;17649;51.836;8.330;2023-02-12T11:04:29;103329.09;;;12.37;100.00
30967;BME280;17649;51.836;8.330;2023-02-12T11:07:31;103312.97;;;12.21;100.00
30967;BME280;17649;51.836;8.330;2023-02-12T11:10:44;103321.34;;;12.34;100.00
30967;BME280;17649;51.836;8.330;2023-02-12T11:13:57;103310.69;;;12.48;100.00
30967;BME280;17649;51.836;8.330;2023-02-12T11:16:59;103311.44;;;12.54;100.00
30967;BME280;17649;51.836;8.330;2023-02-12T11:20:06;103306.47;;;12.84;100.00
30967;BME280;17649;51.836;8.330;2023-02-12T11:23:25;103296.75;;;12.92;100.00
30967;BME280;17649;51.836;8.330;2023-02-12T11:26:26;103297.56;;;12.96;100.00
30967;BME280;17649;51.836;8.330;2023-02-12T11:29:28;103294.00;;;13.00;100.00
30967;BME280;17649;51.836;8.330;2023-02-12T11:32:28;103293.00;;;12.67;100.00
30967;BME280;17649;51.836;8.330;2023-02-12T11:35:28;103292.94;;;12.70;100.00
30967;BME280;17649;51.836;8.330;2023-02-12T11:39:10;103293.91;;;12.66;100.00
30967;BME280;17649;51.836;8.330;2023-02-12T11:42:05;103286.63;;;12.81;100.00
30967;BME280;17649;51.836;8.330;2023-02-12T11:45:15;103280.66;;;12.76;100.00
30967;BME280;17649;51.836;8.330;2023-02-12T11:48:17;103284.78;;;12.45;100.00
30967;BME280;17649;51.836;8.330;2023-02-12T11:51:24;103279.78;;;12.76;100.00
30967;BME280;17649;51.836;8.330;2023-02-12T11:54:26;103280.47;;;12.86;100.00
30967;BME280;17649;51.836;8.330;2023-02-12T11:57:43;103274.13;;;12.97;100.00
30967;BME280;17649;51.836;8.330;2023-02-12T12:04:07;103276.06;;;12.88;100.00
30967;BME280;17649;51.836;8.330;2023-02-12T12:07:13;103281.19;;;12.52;100.00
30967;BME280;17649;51.836;8.330;2023-02-12T12:10:19;103282.03;;;12.11;100.00
30967;BME280;17649;51.836;8.330;2023-02-12T12:13:23;103283.13;;;11.98;100.00
30967;BME280;17649;51.836;8.330;2023-02-12T12:16:33;103278.22;;;11.82;100.00
30967;BME280;17649;51.836;8.330;2023-02-12T12:20:04;103273.91;;;12.28;100.00
30967;BME280;17649;51.836;8.330;2023-02-12T12:26:30;103264.00;;;13.22;100.00
30967;BME280;17649;51.836;8.330;2023-02-12T12:32:33;103253.19;;;13.40;100.00
30967;BME280;17649;51.836;8.330;2023-02-12T12:35:38;103255.41;;;13.20;100.00
30967;BME280;17649;51.836;8.330;2023-02-12T12:42:06;103250.13;;;13.23;100.00
30967;BME280;17649;51.836;8.330;2023-02-12T12:48:21;103243.63;;;13.04;100.00
30967;BME280;17649;51.836;8.330;2023-02-12T13:07:41;103230.72;;;12.23;100.00
30967;BME280;17649;51.836;8.330;2023-02-12T13:26:47;103216.28;;;12.52;100.00
30967;BME280;17649;51.836;8.330;2023-02-12T13:29:49;103217.09;;;12.54;100.00
30967;BME280;17649;51.836;8.330;2023-02-12T13:33:15;103216.06;;;12.21;100.00
30967;BME280;17649;51.836;8.330;2023-02-12T13:36:11;103215.47;;;12.48;100.00
30967;BME280;17649;51.836;8.330;2023-02-12T13:39:19;103215.03;;;12.28;100.00
30967;BME280;17649;51.836;8.330;2023-02-12T13:45:37;103212.69;;;12.95;100.00
30967;BME280;17649;51.836;8.330;2023-02-12T13:48:46;103207.03;;;13.13;100.00
30967;BME280;17649;51.836;8.330;2023-02-12T14:04:41;103202.75;;;13.46;100.00
30967;BME280;17649;51.836;8.330;2023-02-12T14:08:04;103204.66;;;13.39;100.00
30967;BME280;17649;51.836;8.330;2023-02-12T14:11:08;103207.44;;;13.32;100.00
30967;BME280;17649;51.836;8.330;2023-02-12T14:14:11;103206.78;;;13.25;100.00
30967;BME280;17649;51.836;8.330;2023-02-12T14:20:31;103202.66;;;13.15;100.00
30967;BME280;17649;51.836;8.330;2023-02-12T14:23:31;103204.53;;;13.10;100.00
30967;BME280;17649;51.836;8.330;2023-02-12T14:26:34;103208.22;;;13.00;100.00
30967;BME280;17649;51.836;8.330;2023-02-12T14:29:35;103197.88;;;12.98;100.00
30967;BME280;17649;51.836;8.330;2023-02-12T14:36:12;103204.81;;;12.98;100.00
30967;BME280;17649;51.836;8.330;2023-02-12T14:45:26;103199.09;;;12.83;100.00
30967;BME280;17649;51.836;8.330;2023-02-12T14:51:44;103193.31;;;12.71;100.00
30967;BME280;17649;51.836;8.330;2023-02-12T14:54:50;103198.00;;;12.55;100.00
30967;BME280;17649;51.836;8.330;2023-02-12T14:57:54;103198.88;;;12.56;100.00
30967;BME280;17649;51.836;8.330;2023-02-12T15:00:58;103193.63;;;12.57;100.00
30967;BME280;17649;51.836;8.330;2023-02-12T15:03:59;103195.41;;;12.55;100.00
30967;BME280;17649;51.836;8.330;2023-02-12T15:07:05;103195.38;;;12.57;100.00
30967;BME280;17649;51.836;8.330;2023-02-12T15:10:51;103202.34;;;12.54;100.00
30967;BME280;17649;51.836;8.330;2023-02-12T15:17:06;103199.47;;;12.28;100.00
30967;BME280;17649;51.836;8.330;2023-02-12T15:20:15;103208.03;;;11.91;100.00
30967;BME280;17649;51.836;8.330;2023-02-12T15:26:38;103208.16;;;11.84;100.00
30967;BME280;17649;51.836;8.330;2023-02-12T15:29:42;103211.81;;;11.72;100.00
30967;BME280;17649;51.836;8.330;2023-02-12T15:32:44;103207.66;;;11.63;100.00
30967;BME280;17649;51.836;8.330;2023-02-12T15:35:47;103201.66;;;11.60;100.00
30967;BME280;17649;51.836;8.330;2023-02-12T15:38:55;103205.25;;;11.53;100.00
30967;BME280;17649;51.836;8.330;2023-02-12T15:41:57;103200.78;;;11.59;100.00
30967;BME280;17649;51.836;8.330;2023-02-12T15:45:48;103203.38;;;11.59;100.00
30967;BME280;17649;51.836;8.330;2023-02-12T15:48:22;103206.88;;;11.58;100.00
30967;BME280;17649;51.836;8.330;2023-02-12T15:51:29;103206.22;;;11.47;100.00
30967;BME280;17649;51.836;8.330;2023-02-12T15:54:30;103204.41;;;11.52;100.00
30967;BME280;17649;51.836;8.330;2023-02-12T15:57:31;103208.75;;;11.50;100.00
30967;BME280;17649;51.836;8.330;2023-02-12T16:00:38;103203.66;;;11.44;100.00
30967;BME280;17649;51.836;8.330;2023-02-12T16:03:39;103202.06;;;11.37;100.00
30967;BME280;17649;51.836;8.330;2023-02-12T16:06:40;103203.06;;;11.31;100.00
30967;BME280;17649;51.836;8.330;2023-02-12T16:09:42;103206.53;;;11.29;100.00
30967;BME280;17649;51.836;8.330;2023-02-12T16:12:42;103198.72;;;11.30;100.00
30967;BME280;17649;51.836;8.330;2023-02-12T16:15:43;103200.53;;;11.25;100.00
30967;BME280;17649;51.836;8.330;2023-02-12T16:18:43;103196.28;;;11.23;100.00
30967;BME280;17649;51.836;8.330;2023-02-12T16:21:46;103197.16;;;11.22;100.00
30967;BME280;17649;51.836;8.330;2023-02-12T16:24:49;103203.25;;;11.19;100.00
30967;BME280;17649;51.836;8.330;2023-02-12T16:30:55;103201.75;;;11.04;100.00
30967;BME280;17649;51.836;8.330;2023-02-12T16:34:24;103206.13;;;11.02;100.00
30967;BME280;17649;51.836;8.330;2023-02-12T16:37:42;103206.22;;;10.95;100.00
30967;BME280;17649;51.836;8.330;2023-02-12T16:40:43;103203.53;;;11.01;100.00
30967;BME280;17649;51.836;8.330;2023-02-12T16:47:03;103200.94;;;11.02;100.00
30967;BME280;17649;51.836;8.330;2023-02-12T16:50:04;103199.19;;;11.03;100.00
30967;BME280;17649;51.836;8.330;2023-02-12T16:53:06;103201.78;;;11.03;100.00
30967;BME280;17649;51.836;8.330;2023-02-12T16:56:08;103201.75;;;11.04;100.00
30967;BME280;17649;51.836;8.330;2023-02-12T16:59:12;103210.41;;;11.03;100.00
30967;BME280;17649;51.836;8.330;2023-02-12T17:02:13;103213.03;;;11.00;100.00
30967;BME280;17649;51.836;8.330;2023-02-12T17:05:14;103217.38;;;11.00;100.00
30967;BME280;17649;51.836;8.330;2023-02-12T17:08:19;103223.41;;;11.00;100.00
30967;BME280;17649;51.836;8.330;2023-02-12T17:11:20;103219.09;;;10.99;100.00
30967;BME280;17649;51.836;8.330;2023-02-12T17:14:22;103214.81;;;10.98;100.00
30967;BME280;17649;51.836;8.330;2023-02-12T17:17:22;103221.69;;;10.99;100.00
30967;BME280;17649;51.836;8.330;2023-02-12T17:20:22;103225.97;;;11.03;100.00
30967;BME280;17649;51.836;8.330;2023-02-12T17:23:23;103230.25;;;11.06;100.00
30967;BME280;17649;51.836;8.330;2023-02-12T17:26:23;103225.91;;;11.07;100.00
30967;BME280;17649;51.836;8.330;2023-02-12T17:29:24;103233.63;;;11.10;100.00
30967;BME280;17649;51.836;8.330;2023-02-12T17:32:25;103234.50;;;11.09;100.00
30967;BME280;17649;51.836;8.330;2023-02-12T17:35:25;103237.06;;;11.12;100.00
30967;BME280;17649;51.836;8.330;2023-02-12T17:38:26;103231.81;;;11.15;100.00
30967;BME280;17649;51.836;8.330;2023-02-12T17:41:27;103243.00;;;11.18;100.00
30967;BME280;17649;51.836;8.330;2023-02-12T17:44:39;103235.16;;;11.23;100.00
30967;BME280;17649;51.836;8.330;2023-02-12T17:47:40;103244.63;;;11.24;100.00
30967;BME280;17649;51.836;8.330;2023-02-12T17:50:40;103245.50;;;11.23;100.00
30967;BME280;17649;51.836;8.330;2023-02-12T17:53:41;103241.19;;;11.23;100.00
30967;BME280;17649;51.836;8.330;2023-02-12T17:56:43;103249.06;;;11.17;100.00
30967;BME280;17649;51.836;8.330;2023-02-12T17:59:44;103248.22;;;11.15;100.00
30967;BME280;17649;51.836;8.330;2023-02-12T18:02:46;103245.69;;;11.12;100.00
30967;BME280;17649;51.836;8.330;2023-02-12T18:05:48;103249.19;;;11.08;100.00
30967;BME280;17649;51.836;8.330;2023-02-12T18:08:48;103251.00;;;11.04;100.00
30967;BME280;17649;51.836;8.330;2023-02-12T18:11:48;103251.03;;;11.01;100.00
30967;BME280;17649;51.836;8.330;2023-02-12T18:14:49;103250.19;;;10.99;100.00